Time;durP1;ratioP1;P1;durP2;ratioP2;P2;SDS_P1;SDS_P2;PMS_P1;PMS_P2;Temp;Humidity;BMP_temperature;BMP_pressure;BME280_temperature;BME280_humidity;BME280_pressure;Samples;Min_cycle;Max_cycle;Signal;HPM_P1;HPM_P2
2021/03/10 00:02:17;;;;;;;22.17;18.50;;;9.00;99.90;;;;;;5091250;28;20165;-72
2021/03/10 00:04:42;;;;;;;22.10;18.30;;;9.00;99.90;;;;;;5083928;28;20486;-72
2021/03/10 00:07:08;;;;;;;21.17;18.30;;;9.10;99.90;;;;;;5083992;28;20183;-72
2021/03/10 00:09:34;;;;;;;21.50;18.40;;;9.10;99.90;;;;;;5094895;28;20184;-72
2021/03/10 00:11:59;;;;;;;21.37;18.20;;;9.00;99.90;;;;;;5095347;28;20195;-72
2021/03/10 00:14:25;;;;;;;20.50;18.20;;;9.10;99.90;;;;;;5081240;28;20184;-72
2021/03/10 00:16:51;;;;;;;22.23;18.70;;;9.10;99.90;;;;;;5075158;28;20520;-72
2021/03/10 00:19:16;;;;;;;20.93;18.20;;;9.10;99.90;;;;;;5074098;28;20193;-72
2021/03/10 00:21:42;;;;;;;22.13;18.40;;;9.10;99.90;;;;;;5057141;28;20185;-72
2021/03/10 00:24:08;;;;;;;22.30;19.20;;;9.10;99.90;;;;;;5074013;28;20187;-72
2021/03/10 00:26:34;;;;;;;20.97;18.20;;;9.10;99.90;;;;;;5074887;28;20177;-72
2021/03/10 00:29:00;;;;;;;21.27;18.87;;;9.10;99.90;;;;;;5074862;28;20901;-71
2021/03/10 00:31:25;;;;;;;25.00;18.90;;;9.10;99.90;;;;;;5073928;28;20196;-72
2021/03/10 00:33:51;;;;;;;19.83;17.07;;;9.10;99.90;;;;;;5074649;28;20256;-71
2021/03/10 00:36:17;;;;;;;21.97;19.13;;;9.10;99.80;;;;;;5086758;28;20175;-72
2021/03/10 00:38:42;;;;;;;23.23;18.93;;;9.10;99.70;;;;;;5093866;28;20560;-72
2021/03/10 00:41:08;;;;;;;21.80;18.63;;;9.10;99.80;;;;;;5087638;28;20160;-72
2021/03/10 00:43:34;;;;;;;24.10;19.63;;;9.10;99.90;;;;;;5087593;28;20185;-72
2021/03/10 00:45:59;;;;;;;26.90;21.20;;;9.10;99.90;;;;;;5082125;28;20165;-72
2021/03/10 00:48:25;;;;;;;24.30;20.20;;;9.10;99.90;;;;;;5082580;28;20172;-72
2021/03/10 00:50:51;;;;;;;24.77;19.97;;;9.10;99.90;;;;;;5084447;28;20167;-72
2021/03/10 00:53:17;;;;;;;25.60;21.60;;;9.10;99.90;;;;;;5083279;28;20635;-72
2021/03/10 00:55:42;;;;;;;26.60;20.47;;;9.10;99.80;;;;;;5082219;28;20180;-72
2021/03/10 00:58:08;;;;;;;27.30;20.87;;;9.10;99.90;;;;;;5082190;28;20548;-72
2021/03/10 01:00:34;;;;;;;24.03;20.10;;;9.10;99.90;;;;;;5083853;28;20180;-72
2021/03/10 01:02:59;;;;;;;25.90;20.87;;;9.10;99.90;;;;;;5080805;28;20253;-72
2021/03/10 01:05:25;;;;;;;25.17;21.17;;;9.10;99.90;;;;;;5082839;28;20187;-72
2021/03/10 01:07:51;;;;;;;29.43;21.30;;;9.10;99.80;;;;;;5081308;28;20260;-72
2021/03/10 01:10:17;;;;;;;26.93;20.50;;;9.10;99.80;;;;;;5083921;28;20215;-72
2021/03/10 01:12:43;;;;;;;30.13;22.70;;;9.00;99.80;;;;;;5090652;28;20176;-72
2021/03/10 01:15:12;;;;;;;29.70;22.10;;;9.00;99.90;;;;;;5093386;28;20409;-72
2021/03/10 01:17:38;;;;;;;29.20;22.47;;;9.10;99.90;;;;;;5093947;28;20410;-72
2021/03/10 01:20:15;;;;;;;27.73;22.00;;;9.10;99.90;;;;;;5093496;28;20778;-71
2021/03/10 01:22:41;;;;;;;33.00;23.33;;;9.10;99.80;;;;;;5075973;28;20391;-72
2021/03/10 01:25:08;;;;;;;26.73;21.67;;;9.10;99.80;;;;;;5093635;28;20373;-72
2021/03/10 01:27:34;;;;;;;29.23;22.60;;;9.00;99.80;;;;;;5093923;28;20492;-72
2021/03/10 01:30:00;;;;;;;27.83;22.27;;;9.00;99.90;;;;;;5093731;28;20501;-72
2021/03/10 01:32:26;;;;;;;27.33;22.30;;;9.00;99.90;;;;;;5093039;28;20549;-72
2021/03/10 01:34:51;;;;;;;29.33;23.50;;;9.00;99.90;;;;;;5093358;28;20167;-72
2021/03/10 01:37:17;;;;;;;33.03;24.13;;;9.00;99.90;;;;;;5092746;28;20600;-72
2021/03/10 01:39:43;;;;;;;29.60;23.23;;;9.00;99.90;;;;;;5077076;28;20231;-71
2021/03/10 01:42:09;;;;;;;30.50;23.23;;;9.00;99.90;;;;;;5072682;28;20309;-72
2021/03/10 01:44:35;;;;;;;29.17;23.40;;;9.00;99.90;;;;;;5073165;28;20172;-72
2021/03/10 01:47:02;;;;;;;30.27;23.90;;;9.00;99.90;;;;;;5073300;28;20161;-72
2021/03/10 01:49:28;;;;;;;30.07;22.90;;;8.90;99.90;;;;;;5054748;28;20411;-72
2021/03/10 01:51:55;;;;;;;29.23;23.67;;;8.90;99.90;;;;;;5073194;28;20423;-72
2021/03/10 01:54:21;;;;;;;30.43;24.23;;;8.90;99.90;;;;;;5072455;28;20844;-72
2021/03/10 01:56:46;;;;;;;29.93;23.70;;;8.90;99.90;;;;;;5073200;28;20418;-72
2021/03/10 01:59:12;;;;;;;31.33;24.83;;;8.90;99.90;;;;;;5072260;28;20479;-72
2021/03/10 02:01:38;;;;;;;29.70;23.97;;;8.90;99.90;;;;;;5074325;28;20260;-72
2021/03/10 02:04:09;;;;;;;31.90;24.27;;;8.90;99.90;;;;;;5080149;28;20393;-72
2021/03/10 02:06:59;;;;;;;35.57;26.50;;;8.90;99.90;;;;;;5074842;28;20309;-72
2021/03/10 02:09:47;;;;;;;36.03;25.67;;;8.90;99.90;;;;;;5092254;28;20407;-72
2021/03/10 02:12:12;;;;;;;35.10;25.53;;;8.90;99.90;;;;;;5092012;28;20881;-71
2021/03/10 02:14:42;;;;;;;42.20;28.03;;;8.90;99.90;;;;;;5092349;28;20414;-72
2021/03/10 02:17:13;;;;;;;43.10;28.23;;;8.90;99.90;;;;;;5090590;28;20160;-72
2021/03/10 02:20:00;;;;;;;47.13;31.10;;;8.90;99.90;;;;;;5092884;28;20502;-72
2021/03/10 02:23:00;;;;;;;44.70;29.73;;;8.90;99.90;;;;;;5091116;28;20410;-72
2021/03/10 02:25:38;;;;;;;49.00;29.47;;;8.90;99.90;;;;;;5080238;28;20415;-72
2021/03/10 02:28:04;;;;;;;46.20;29.07;;;8.80;99.70;;;;;;5080659;28;20407;-72
2021/03/10 02:30:35;;;;;;;49.60;30.20;;;8.80;99.50;;;;;;5072811;28;20443;-72
2021/03/10 02:33:08;;;;;;;47.20;29.63;;;8.80;99.30;;;;;;5080337;28;20380;-72
2021/03/10 02:35:37;;;;;;;52.23;30.27;;;8.80;99.20;;;;;;5081442;28;20521;-72
2021/03/10 02:38:07;;;;;;;48.40;28.90;;;8.80;99.30;;;;;;5081517;28;20457;-72
2021/03/10 02:40:35;;;;;;;45.90;29.37;;;8.80;99.50;;;;;;5075377;28;20450;-72
2021/03/10 02:43:01;;;;;;;49.47;30.47;;;8.80;99.50;;;;;;5072400;28;20407;-72
2021/03/10 02:45:28;;;;;;;43.17;28.90;;;8.80;99.50;;;;;;5071566;28;20402;-72
2021/03/10 02:47:56;;;;;;;47.20;29.70;;;8.70;99.50;;;;;;5072272;28;20474;-72
2021/03/10 02:50:23;;;;;;;42.53;29.30;;;8.70;99.50;;;;;;5072550;28;20450;-72
2021/03/10 02:52:49;;;;;;;43.67;28.60;;;8.70;99.50;;;;;;5085877;28;20504;-72
2021/03/10 02:55:15;;;;;;;41.03;29.23;;;8.70;99.60;;;;;;5073343;28;20410;-72
2021/03/10 02:57:41;;;;;;;40.53;27.80;;;8.70;99.50;;;;;;5092344;28;20421;-72
2021/03/10 03:00:17;;;;;;;39.07;27.07;;;8.70;99.60;;;;;;5092294;28;20863;-72
2021/03/10 03:02:43;;;;;;;38.93;26.17;;;8.70;99.80;;;;;;5092567;28;20455;-71
2021/03/10 03:05:09;;;;;;;40.47;27.70;;;8.70;99.80;;;;;;5090352;28;20407;-72
2021/03/10 03:07:40;;;;;;;44.10;27.90;;;8.70;99.90;;;;;;5084237;28;20183;-72
2021/03/10 03:10:10;;;;;;;40.10;27.03;;;8.70;99.80;;;;;;5073193;28;20943;-72
2021/03/10 03:12:39;;;;;;;40.03;27.83;;;8.70;99.80;;;;;;5091636;28;20389;-72
2021/03/10 03:15:06;;;;;;;41.83;28.47;;;8.70;99.60;;;;;;5091918;28;20446;-71
2021/03/10 03:17:33;;;;;;;44.93;29.67;;;8.70;99.60;;;;;;5071791;28;21192;-72
2021/03/10 03:19:59;;;;;;;39.67;27.77;;;8.70;99.40;;;;;;5071844;28;20462;-72
2021/03/10 03:22:25;;;;;;;43.90;29.50;;;8.70;99.30;;;;;;5071095;28;20388;-72
2021/03/10 03:24:52;;;;;;;42.77;28.20;;;8.70;99.30;;;;;;5071756;28;20199;-72
2021/03/10 03:27:25;;;;;;;43.90;28.30;;;8.70;99.10;;;;;;5073235;28;20875;-73
2021/03/10 03:29:59;;;;;;;48.40;27.80;;;8.70;99.00;;;;;;5078904;28;20414;-74
2021/03/10 03:32:27;;;;;;;42.83;27.03;;;8.70;99.00;;;;;;5095377;28;20459;-73
2021/03/10 03:34:56;;;;;;;42.50;28.17;;;8.70;98.90;;;;;;5082791;28;20472;-73
2021/03/10 03:37:25;;;;;;;42.87;27.63;;;8.70;99.00;;;;;;5087869;28;20471;-73
2021/03/10 03:39:51;;;;;;;41.67;28.13;;;8.70;99.10;;;;;;5095544;28;20777;-73
2021/03/10 03:42:20;;;;;;;44.40;27.67;;;8.70;99.00;;;;;;5092731;28;20429;-73
2021/03/10 03:44:47;;;;;;;45.83;28.23;;;8.60;98.90;;;;;;5075251;28;20425;-73
2021/03/10 03:47:13;;;;;;;44.90;27.83;;;8.60;99.30;;;;;;5075242;28;20406;-73
2021/03/10 03:49:43;;;;;;;53.13;31.63;;;8.60;99.00;;;;;;5079239;28;20416;-74
2021/03/10 03:52:09;;;;;;;47.20;30.03;;;8.60;99.20;;;;;;5087648;28;20483;-73
2021/03/10 03:54:35;;;;;;;54.83;32.10;;;8.60;99.30;;;;;;5075723;28;20600;-73
2021/03/10 03:57:02;;;;;;;46.70;30.87;;;8.60;99.30;;;;;;5084058;28;20429;-73
2021/03/10 03:59:28;;;;;;;46.83;29.87;;;8.60;99.20;;;;;;5085685;28;20914;-73
2021/03/10 04:01:53;;;;;;;43.03;29.67;;;8.70;99.30;;;;;;5074869;28;20409;-73
2021/03/10 04:04:19;;;;;;;47.33;28.90;;;8.70;99.30;;;;;;5083597;28;20217;-73
2021/03/10 04:06:51;;;;;;;43.53;28.57;;;8.70;98.90;;;;;;5082146;28;20175;-73
2021/03/10 04:09:17;;;;;;;42.00;28.60;;;8.70;98.90;;;;;;5094247;28;20289;-72
2021/03/10 04:11:44;;;;;;;40.60;26.87;;;8.70;98.90;;;;;;5095359;28;20960;-72
2021/03/10 04:14:10;;;;;;;42.30;28.10;;;8.70;98.80;;;;;;5094886;28;20416;-72
2021/03/10 04:16:36;;;;;;;41.93;27.50;;;8.70;98.80;;;;;;5094522;28;20409;-73
2021/03/10 04:19:01;;;;;;;40.57;26.40;;;8.70;98.70;;;;;;5080525;28;20457;-72
2021/03/10 04:21:27;;;;;;;37.73;26.07;;;8.70;98.70;;;;;;5056293;28;20407;-72
2021/03/10 04:23:53;;;;;;;37.20;26.20;;;8.60;98.60;;;;;;5074873;28;20187;-73
2021/03/10 04:26:19;;;;;;;36.10;25.37;;;8.60;98.60;;;;;;5056262;28;20178;-72
2021/03/10 04:28:44;;;;;;;35.00;25.10;;;8.60;98.40;;;;;;5074847;28;20199;-72
2021/03/10 04:31:10;;;;;;;35.60;25.93;;;8.50;98.20;;;;;;5093800;28;20167;-73
2021/03/10 04:33:36;;;;;;;34.87;24.77;;;8.50;97.80;;;;;;5081748;28;20628;-72
2021/03/10 04:36:01;;;;;;;33.87;26.07;;;8.50;98.00;;;;;;5074309;28;20215;-72
2021/03/10 04:38:28;;;;;;;35.00;23.87;;;8.40;97.70;;;;;;5080365;28;20210;-72
2021/03/10 04:40:54;;;;;;;39.23;26.23;;;8.40;97.80;;;;;;5094903;28;20261;-72
2021/03/10 04:43:20;;;;;;;36.57;25.70;;;8.40;98.00;;;;;;5075890;28;20400;-73
2021/03/10 04:45:46;;;;;;;34.03;25.10;;;8.30;98.00;;;;;;5094796;28;20213;-72
2021/03/10 04:48:11;;;;;;;43.37;26.40;;;8.30;98.10;;;;;;5093956;28;20541;-72
2021/03/10 04:50:37;;;;;;;33.90;25.77;;;8.20;97.90;;;;;;5093444;28;20555;-72
2021/03/10 04:53:03;;;;;;;33.47;24.50;;;8.20;98.10;;;;;;5092753;28;20461;-72
2021/03/10 04:55:29;;;;;;;38.73;26.30;;;8.20;98.10;;;;;;5088293;28;20233;-72
2021/03/10 04:57:54;;;;;;;37.60;25.60;;;8.20;98.30;;;;;;5074106;28;20175;-72
2021/03/10 05:00:21;;;;;;;37.03;26.07;;;8.20;99.00;;;;;;5075798;28;20172;-73
2021/03/10 05:02:47;;;;;;;37.30;25.67;;;8.20;98.80;;;;;;5085630;28;20176;-72
2021/03/10 05:05:13;;;;;;;38.07;26.60;;;8.10;98.90;;;;;;5076396;28;20409;-72
2021/03/10 05:07:39;;;;;;;42.97;27.90;;;8.20;99.10;;;;;;5093237;28;20424;-72
2021/03/10 05:10:07;;;;;;;36.50;26.10;;;8.20;99.10;;;;;;5094135;28;20504;-72
2021/03/10 05:12:33;;;;;;;39.90;27.13;;;8.20;99.00;;;;;;5093743;28;20425;-72
2021/03/10 05:14:59;;;;;;;40.20;28.50;;;8.20;99.00;;;;;;5093470;28;20883;-72
2021/03/10 05:17:26;;;;;;;37.07;26.90;;;8.20;98.90;;;;;;5093394;28;20180;-73
2021/03/10 05:19:56;;;;;;;45.53;31.80;;;8.20;98.90;;;;;;5093707;28;20422;-72
2021/03/10 05:22:23;;;;;;;35.57;26.97;;;8.30;98.90;;;;;;5093441;28;20730;-72
2021/03/10 05:24:49;;;;;;;41.23;28.00;;;8.30;98.80;;;;;;5093989;28;20393;-72
2021/03/10 05:27:16;;;;;;;34.47;25.77;;;8.30;98.70;;;;;;5094049;28;20952;-72
2021/03/10 05:29:42;;;;;;;36.07;26.10;;;8.30;98.80;;;;;;5083690;28;20479;-73
2021/03/10 05:32:08;;;;;;;31.87;24.80;;;8.30;98.60;;;;;;5086182;28;20399;-73
2021/03/10 05:34:34;;;;;;;34.80;25.30;;;8.20;98.40;;;;;;5072942;28;20485;-73
2021/03/10 05:37:00;;;;;;;29.87;23.80;;;8.20;98.40;;;;;;5082021;28;20171;-73
2021/03/10 05:39:26;;;;;;;31.03;24.70;;;8.20;98.40;;;;;;5089948;28;20604;-73
2021/03/10 05:41:52;;;;;;;34.93;24.40;;;8.20;98.30;;;;;;5089264;28;20558;-73
2021/03/10 05:44:17;;;;;;;30.33;22.33;;;8.20;98.20;;;;;;5072427;28;20475;-73
2021/03/10 05:46:43;;;;;;;34.13;23.00;;;8.20;98.00;;;;;;5072899;28;20179;-73
2021/03/10 05:49:10;;;;;;;30.70;22.50;;;8.20;97.90;;;;;;5071826;28;20694;-73
2021/03/10 05:51:37;;;;;;;32.70;24.03;;;8.20;98.00;;;;;;5071252;28;20436;-73
2021/03/10 05:54:04;;;;;;;31.67;23.60;;;8.20;98.00;;;;;;5074811;28;20952;-73
2021/03/10 05:56:30;;;;;;;30.73;23.97;;;8.10;98.10;;;;;;5091889;28;20428;-73
2021/03/10 05:58:57;;;;;;;28.93;22.63;;;8.10;98.20;;;;;;5074783;28;20518;-73
2021/03/10 06:01:24;;;;;;;27.43;22.70;;;8.10;98.10;;;;;;5073966;28;20417;-73
2021/03/10 06:04:05;;;;;;;31.87;22.43;;;8.10;98.00;;;;;;5092435;28;20504;-72
2021/03/10 06:06:36;;;;;;;29.13;21.50;;;8.10;97.90;;;;;;5078101;28;20413;-73
2021/03/10 06:09:19;;;;;;;29.77;22.03;;;8.10;97.80;;;;;;5088864;28;20421;-73
2021/03/10 06:11:57;;;;;;;29.47;22.93;;;8.00;97.50;;;;;;5078951;28;20418;-73
2021/03/10 06:14:23;;;;;;;27.63;22.13;;;8.00;97.70;;;;;;5082466;28;20402;-73
2021/03/10 06:17:00;;;;;;;30.63;23.43;;;8.00;97.80;;;;;;5078869;28;20422;-73
2021/03/10 06:19:26;;;;;;;27.33;23.27;;;7.90;97.80;;;;;;5068741;28;20792;-73
2021/03/10 06:21:52;;;;;;;29.37;22.73;;;7.90;98.10;;;;;;5084607;28;20517;-73
2021/03/10 06:24:18;;;;;;;29.50;23.63;;;7.90;98.20;;;;;;5083638;28;20193;-73
2021/03/10 06:26:54;;;;;;;29.00;22.80;;;7.90;98.30;;;;;;5073312;28;20475;-73
2021/03/10 06:29:20;;;;;;;28.90;21.93;;;8.00;98.40;;;;;;5092337;28;20499;-73
2021/03/10 06:31:45;;;;;;;30.13;23.50;;;8.00;98.20;;;;;;5092113;28;20477;-73
2021/03/10 06:34:12;;;;;;;30.47;24.37;;;8.00;98.10;;;;;;5092452;28;20470;-73
2021/03/10 06:36:39;;;;;;;26.03;21.40;;;7.90;98.00;;;;;;5091959;28;20207;-72
2021/03/10 06:39:07;;;;;;;29.20;21.90;;;8.00;98.20;;;;;;5092495;28;20453;-72
2021/03/10 06:41:36;;;;;;;29.03;23.37;;;7.90;98.20;;;;;;5068066;28;20881;-72
2021/03/10 06:44:23;;;;;;;25.40;21.77;;;8.00;98.30;;;;;;5092007;28;20426;-73
2021/03/10 06:47:03;;;;;;;28.20;22.20;;;8.00;98.40;;;;;;5091068;28;20753;-72
2021/03/10 06:49:31;;;;;;;25.93;21.87;;;8.00;98.30;;;;;;5073211;28;20449;-72
2021/03/10 06:52:08;;;;;;;29.47;22.30;;;8.00;98.00;;;;;;5092488;28;20400;-72
2021/03/10 06:54:35;;;;;;;29.33;21.67;;;8.00;98.10;;;;;;5091367;28;20420;-72
2021/03/10 06:57:06;;;;;;;31.37;23.53;;;8.00;98.00;;;;;;5091736;28;20714;-73
2021/03/10 06:59:46;;;;;;;28.17;21.77;;;8.00;97.90;;;;;;5091654;28;20446;-72
2021/03/10 07:02:23;;;;;;;28.23;20.43;;;8.10;97.90;;;;;;5073807;28;20995;-72
2021/03/10 07:04:50;;;;;;;29.00;21.60;;;8.10;97.80;;;;;;5079300;28;20409;-72
2021/03/10 07:07:17;;;;;;;29.73;22.30;;;8.10;97.70;;;;;;5092314;28;20472;-72
2021/03/10 07:09:43;;;;;;;27.03;21.80;;;8.10;97.70;;;;;;5091317;28;20401;-71
2021/03/10 07:12:12;;;;;;;27.30;22.17;;;8.10;97.90;;;;;;5092074;28;20428;-71
2021/03/10 07:14:38;;;;;;;27.00;20.70;;;8.50;99.10;;;;;;5073046;28;20806;-71
2021/03/10 07:17:06;;;;;;;26.90;20.77;;;9.10;98.80;;;;;;5081298;28;20429;-71
2021/03/10 07:19:32;;;;;;;24.33;20.90;;;9.70;98.30;;;;;;5054374;28;20286;-72
2021/03/10 07:22:10;;;;;;;24.70;20.70;;;10.20;96.30;;;;;;5073103;28;20765;-72
2021/03/10 07:24:57;;;;;;;27.13;22.40;;;10.60;95.40;;;;;;5071184;28;20902;-72
2021/03/10 07:27:25;;;;;;;26.20;22.27;;;11.10;94.70;;;;;;5073461;28;20980;-73
2021/03/10 07:30:10;;;;;;;24.43;21.10;;;11.60;94.10;;;;;;5090143;28;20975;-72
2021/03/10 07:32:36;;;;;;;23.03;20.60;;;12.00;93.20;;;;;;5082424;28;20438;-72
2021/03/10 07:35:11;;;;;;;24.37;20.90;;;12.30;92.50;;;;;;5071674;28;20465;-71
2021/03/10 07:37:39;;;;;;;24.97;21.13;;;12.60;91.40;;;;;;5082824;28;20410;-72
2021/03/10 07:40:16;;;;;;;23.87;21.37;;;12.80;90.60;;;;;;5091119;28;20475;-71
2021/03/10 07:42:58;;;;;;;24.53;21.97;;;13.00;89.40;;;;;;5091231;28;20416;-71
2021/03/10 07:45:27;;;;;;;21.83;19.57;;;13.20;88.70;;;;;;5087230;28;20425;-73
2021/03/10 07:48:11;;;;;;;27.50;22.57;;;13.40;87.80;;;;;;5069337;28;20435;-71
2021/03/10 07:50:46;;;;;;;25.47;22.70;;;13.50;86.90;;;;;;5069552;28;20494;-72
2021/03/10 07:53:13;;;;;;;23.27;20.87;;;13.70;87.00;;;;;;5071630;28;20407;-72
2021/03/10 07:55:46;;;;;;;21.77;19.40;;;13.80;86.00;;;;;;5053091;28;20415;-72
2021/03/10 07:58:24;;;;;;;22.77;20.47;;;13.80;82.90;;;;;;5075075;28;20449;-72
2021/03/10 08:00:50;;;;;;;22.73;19.77;;;13.80;82.90;;;;;;5073274;28;20413;-72
2021/03/10 08:03:29;;;;;;;22.97;20.53;;;13.90;83.00;;;;;;5085055;28;20404;-72
2021/03/10 08:06:03;;;;;;;21.63;19.43;;;14.10;84.00;;;;;;5073659;28;20418;-71
2021/03/10 08:08:40;;;;;;;22.10;19.90;;;14.20;83.00;;;;;;5089263;28;20548;-72
2021/03/10 08:11:14;;;;;;;21.50;19.20;;;14.30;81.80;;;;;;5091054;28;20406;-72
2021/03/10 08:13:41;;;;;;;24.63;19.33;;;14.20;79.70;;;;;;5086199;28;21151;-72
2021/03/10 08:16:09;;;;;;;22.10;19.87;;;13.90;78.80;;;;;;5087058;28;20478;-72
2021/03/10 08:18:36;;;;;;;24.47;21.03;;;13.50;79.10;;;;;;5083400;28;20453;-72
2021/03/10 08:21:16;;;;;;;22.80;20.50;;;13.00;80.20;;;;;;5093902;28;20410;-72
2021/03/10 08:23:41;;;;;;;22.23;19.97;;;12.60;81.90;;;;;;5094504;28;20949;-72
2021/03/10 08:26:08;;;;;;;21.63;19.50;;;12.30;83.40;;;;;;5065887;28;20422;-72
2021/03/10 08:28:35;;;;;;;22.93;20.47;;;12.00;84.80;;;;;;5074081;28;20180;-72
2021/03/10 08:31:04;;;;;;;26.00;20.00;;;11.80;85.80;;;;;;5075095;28;20431;-72
2021/03/10 08:33:30;;;;;;;22.13;19.73;;;11.50;86.70;;;;;;5073957;28;20410;-72
2021/03/10 08:35:56;;;;;;;22.27;19.87;;;11.30;88.30;;;;;;5074756;28;20521;-72
2021/03/10 08:38:22;;;;;;;24.03;21.57;;;11.10;89.60;;;;;;5086108;28;20912;-72
2021/03/10 08:40:48;;;;;;;24.33;20.60;;;11.00;90.20;;;;;;5094070;28;20563;-72
2021/03/10 08:43:20;;;;;;;23.10;20.80;;;10.80;90.60;;;;;;5092720;28;20439;-72
2021/03/10 08:45:46;;;;;;;22.00;18.87;;;10.70;90.90;;;;;;5073863;28;20482;-72
2021/03/10 08:48:14;;;;;;;21.57;18.73;;;10.50;91.10;;;;;;5093897;28;20910;-72
2021/03/10 08:50:45;;;;;;;21.37;19.17;;;10.40;91.30;;;;;;5086747;28;20424;-71
2021/03/10 08:53:15;;;;;;;21.80;18.30;;;10.10;91.90;;;;;;5076518;28;20494;-71
2021/03/10 08:55:42;;;;;;;23.20;18.93;;;10.00;92.40;;;;;;5078011;28;20465;-72
2021/03/10 08:58:12;;;;;;;26.17;20.00;;;10.00;92.60;;;;;;5074969;28;20489;-74
2021/03/10 09:00:38;;;;;;;24.20;20.00;;;10.00;92.80;;;;;;5093239;28;20457;-74
2021/03/10 09:03:20;;;;;;;24.60;19.90;;;9.70;93.40;;;;;;5094542;28;20475;-74
2021/03/10 09:05:51;;;;;;;22.30;18.43;;;9.70;94.20;;;;;;5093591;28;20490;-74
2021/03/10 09:08:22;;;;;;;23.70;18.93;;;9.70;94.40;;;;;;5094447;28;20391;-74
2021/03/10 09:10:53;;;;;;;24.00;20.07;;;9.70;94.60;;;;;;5093823;28;20391;-74
2021/03/10 09:13:23;;;;;;;23.73;19.70;;;9.80;94.70;;;;;;5094077;28;20399;-73
2021/03/10 09:15:49;;;;;;;26.73;19.40;;;9.70;94.90;;;;;;5093396;28;20462;-74
2021/03/10 09:18:16;;;;;;;27.33;21.10;;;9.70;95.00;;;;;;5094096;28;20438;-74
2021/03/10 09:20:44;;;;;;;25.60;18.80;;;9.70;95.00;;;;;;5092879;28;20426;-74
2021/03/10 09:23:11;;;;;;;28.70;21.00;;;9.60;95.20;;;;;;5094003;28;20559;-74
2021/03/10 09:25:39;;;;;;;26.43;21.13;;;9.50;95.20;;;;;;5092392;28;20411;-75
2021/03/10 09:28:16;;;;;;;28.53;21.13;;;9.50;95.50;;;;;;5094053;28;20422;-74
2021/03/10 09:30:44;;;;;;;28.70;22.63;;;9.50;95.70;;;;;;5075260;28;20941;-74
2021/03/10 09:33:29;;;;;;;26.43;20.43;;;9.40;95.50;;;;;;5093632;28;20435;-74
2021/03/10 09:36:00;;;;;;;28.40;21.10;;;9.50;96.00;;;;;;5093688;28;20451;-74
2021/03/10 09:38:30;;;;;;;31.90;19.90;;;9.30;96.00;;;;;;5088013;28;20458;-75
2021/03/10 09:40:58;;;;;;;30.40;21.77;;;9.20;96.70;;;;;;5073493;28;20769;-74
2021/03/10 09:43:27;;;;;;;29.80;21.90;;;9.30;96.60;;;;;;5075388;28;20874;-75
2021/03/10 09:46:04;;;;;;;27.27;21.07;;;9.00;96.60;;;;;;5093481;28;20401;-74
2021/03/10 09:48:35;;;;;;;29.50;22.93;;;9.10;97.30;;;;;;5093041;28;20394;-76
2021/03/10 09:51:21;;;;;;;31.57;23.00;;;9.10;96.80;;;;;;5093611;28;20544;-74
2021/03/10 09:53:49;;;;;;;32.80;22.60;;;9.10;97.30;;;;;;5074583;28;20517;-74
2021/03/10 09:56:16;;;;;;;33.60;24.37;;;9.20;97.30;;;;;;5093407;28;20422;-75
2021/03/10 09:58:56;;;;;;;32.80;23.13;;;9.30;96.90;;;;;;5074465;28;20443;-75
2021/03/10 10:01:26;;;;;;;36.47;25.27;;;9.30;96.90;;;;;;5093545;28;20419;-74
2021/03/10 10:03:53;;;;;;;34.43;24.80;;;9.50;96.80;;;;;;5092539;28;20453;-74
2021/03/10 10:06:20;;;;;;;33.97;25.83;;;9.60;97.00;;;;;;5093341;28;20407;-74
2021/03/10 10:08:47;;;;;;;36.33;24.03;;;9.60;96.60;;;;;;5092487;28;20435;-75
2021/03/10 10:11:13;;;;;;;37.43;26.57;;;9.70;96.50;;;;;;5093203;28;20523;-74
2021/03/10 10:13:41;;;;;;;33.87;26.30;;;9.40;96.80;;;;;;5091859;28;20406;-74
2021/03/10 10:16:08;;;;;;;32.70;25.60;;;9.70;97.30;;;;;;5093115;28;20405;-74
2021/03/10 10:18:34;;;;;;;37.40;26.97;;;9.90;97.00;;;;;;5092147;28;20454;-74
2021/03/10 10:21:00;;;;;;;38.00;26.80;;;10.10;96.10;;;;;;5093017;28;20402;-74
2021/03/10 10:23:26;;;;;;;38.37;25.77;;;10.30;95.80;;;;;;5092759;28;20410;-74
2021/03/10 10:25:51;;;;;;;37.37;26.77;;;10.50;95.90;;;;;;5092136;28;20447;-74
2021/03/10 10:28:17;;;;;;;38.73;27.37;;;10.70;96.00;;;;;;5074757;28;20227;-74
2021/03/10 10:30:43;;;;;;;36.87;28.20;;;10.80;95.60;;;;;;5074039;28;20168;-74
2021/03/10 10:33:09;;;;;;;36.83;25.10;;;10.60;94.60;;;;;;5092811;28;20176;-74
2021/03/10 10:35:34;;;;;;;38.53;27.50;;;10.60;95.60;;;;;;5073365;28;20437;-74
2021/03/10 10:38:00;;;;;;;40.63;28.97;;;10.90;95.60;;;;;;5092622;28;20169;-75
2021/03/10 10:40:26;;;;;;;38.73;27.70;;;11.10;94.90;;;;;;5092669;28;20552;-74
2021/03/10 10:42:52;;;;;;;41.47;28.13;;;11.30;94.40;;;;;;5092114;28;20424;-74
2021/03/10 10:45:19;;;;;;;37.77;28.43;;;11.40;93.90;;;;;;5092092;28;20593;-74
2021/03/10 10:47:45;;;;;;;35.70;26.60;;;11.50;93.00;;;;;;5091626;28;20508;-74
2021/03/10 10:50:13;;;;;;;36.57;26.90;;;11.60;93.30;;;;;;5092475;28;20409;-74
2021/03/10 10:52:39;;;;;;;38.33;28.63;;;11.60;93.50;;;;;;5091716;28;20733;-74
2021/03/10 10:55:10;;;;;;;37.27;27.43;;;11.80;93.30;;;;;;5092376;28;20819;-74
2021/03/10 10:57:37;;;;;;;34.77;26.63;;;11.90;92.50;;;;;;5091689;28;20387;-75
2021/03/10 11:00:08;;;;;;;32.53;25.00;;;11.90;92.60;;;;;;5092065;28;20452;-74
2021/03/10 11:02:34;;;;;;;30.10;24.73;;;11.90;92.20;;;;;;5090788;28;20422;-75
2021/03/10 11:05:00;;;;;;;32.47;24.07;;;12.10;92.00;;;;;;5092367;28;20409;-74
2021/03/10 11:07:25;;;;;;;27.67;22.33;;;12.10;91.50;;;;;;5091838;28;20412;-74
2021/03/10 11:09:51;;;;;;;28.53;22.23;;;12.20;91.10;;;;;;5091260;28;20206;-75
2021/03/10 11:12:17;;;;;;;30.13;22.80;;;12.20;90.70;;;;;;5092458;28;20506;-74
2021/03/10 11:14:43;;;;;;;25.83;20.27;;;12.20;90.50;;;;;;5091424;28;20174;-74
2021/03/10 11:17:09;;;;;;;25.30;21.13;;;12.30;90.50;;;;;;5092214;28;20170;-74
2021/03/10 11:19:36;;;;;;;27.00;21.77;;;12.40;91.00;;;;;;5090615;28;20471;-76
2021/03/10 11:22:04;;;;;;;25.10;20.53;;;12.40;90.60;;;;;;5092054;28;20179;-74
2021/03/10 11:24:29;;;;;;;24.87;19.17;;;12.50;90.60;;;;;;5092357;28;20819;-74
2021/03/10 11:26:55;;;;;;;26.07;23.20;;;12.50;89.40;;;;;;5091567;28;20497;-74
2021/03/10 11:29:22;;;;;;;27.57;21.07;;;12.50;89.40;;;;;;5073733;28;20610;-74
2021/03/10 11:31:48;;;;;;;24.90;19.87;;;12.40;89.50;;;;;;5091229;28;20171;-73
2021/03/10 11:34:14;;;;;;;22.80;20.10;;;12.30;88.70;;;;;;5092036;28;20506;-73
2021/03/10 11:36:40;;;;;;;23.10;19.53;;;12.40;89.00;;;;;;5091285;28;20410;-72
2021/03/10 11:39:06;;;;;;;25.40;20.17;;;12.30;89.40;;;;;;5080179;28;20720;-72
2021/03/10 11:41:34;;;;;;;23.60;20.20;;;12.40;89.90;;;;;;5071526;28;20407;-76
2021/03/10 11:44:01;;;;;;;23.00;19.13;;;12.20;89.40;;;;;;5078971;28;20518;-74
2021/03/10 11:46:27;;;;;;;24.53;19.47;;;12.10;90.00;;;;;;5091931;28;20412;-74
2021/03/10 11:48:52;;;;;;;21.70;18.27;;;12.20;89.60;;;;;;5094144;28;20409;-74
2021/03/10 11:51:18;;;;;;;23.50;20.67;;;12.10;88.20;;;;;;5095749;28;20177;-73
2021/03/10 11:53:44;;;;;;;20.87;17.30;;;12.10;89.40;;;;;;5094613;28;20177;-74
2021/03/10 11:56:09;;;;;;;23.07;17.87;;;12.20;88.40;;;;;;5095907;28;20173;-74
2021/03/10 11:58:35;;;;;;;19.50;16.93;;;12.20;88.10;;;;;;5094534;28;20539;-76
2021/03/10 12:01:01;;;;;;;20.73;17.67;;;12.30;88.80;;;;;;5095542;28;20207;-74
2021/03/10 12:03:27;;;;;;;19.33;16.93;;;12.40;88.00;;;;;;5095477;28;20519;-74
2021/03/10 12:05:52;;;;;;;21.30;18.77;;;12.50;87.00;;;;;;5094783;28;20434;-74
2021/03/10 12:08:18;;;;;;;19.33;16.93;;;12.60;87.40;;;;;;5095566;28;20600;-74
2021/03/10 12:10:44;;;;;;;21.57;17.87;;;12.60;85.80;;;;;;5094598;28;20174;-74
2021/03/10 12:13:10;;;;;;;20.37;17.00;;;12.70;85.80;;;;;;5095435;28;20557;-75
2021/03/10 12:15:38;;;;;;;22.10;18.27;;;12.90;86.30;;;;;;5094611;28;20174;-76
2021/03/10 12:18:05;;;;;;;20.80;17.03;;;13.00;86.20;;;;;;5091337;28;20900;-74
2021/03/10 12:20:31;;;;;;;19.53;16.97;;;13.20;85.10;;;;;;5075095;28;20457;-74
2021/03/10 12:22:56;;;;;;;20.27;18.03;;;13.30;84.20;;;;;;5074502;28;20414;-74
2021/03/10 12:25:23;;;;;;;18.50;16.40;;;13.40;84.00;;;;;;5074407;28;20267;-74
2021/03/10 12:27:50;;;;;;;18.00;15.97;;;13.40;82.90;;;;;;5073843;28;20180;-72
2021/03/10 12:30:16;;;;;;;20.03;17.80;;;13.30;82.70;;;;;;5057280;28;20490;-72
2021/03/10 12:32:42;;;;;;;18.53;15.73;;;13.20;81.90;;;;;;5073523;28;20417;-73
2021/03/10 12:35:10;;;;;;;18.53;14.10;;;13.00;82.10;;;;;;5074803;28;20457;-72
2021/03/10 12:37:36;;;;;;;15.23;13.10;;;13.00;82.20;;;;;;5074282;28;20409;-72
2021/03/10 12:40:03;;;;;;;13.90;12.50;;;13.00;79.80;;;;;;5071864;28;20474;-73